createdAt,value
2022-11-29T00:00:55.741Z,160177.53
2022-11-29T00:04:00.666Z,160191.88
2022-11-29T00:07:05.058Z,160190.59
2022-11-29T00:10:09.241Z,160182.72
2022-11-29T00:13:13.478Z,160207.50
2022-11-29T00:16:17.586Z,160211.47
2022-11-29T00:19:22.478Z,160161.84
2022-11-29T00:22:26.403Z,160160.53
2022-11-29T00:25:30.609Z,160167.03
2022-11-29T00:28:35.810Z,160139.66
2022-11-29T00:31:40.716Z,160147.50
2022-11-29T00:34:45.018Z,160142.25
2022-11-29T00:37:49.490Z,160113.56
2022-11-29T00:40:53.140Z,160122.66
2022-11-29T00:43:57.048Z,160139.66
2022-11-29T00:47:01.375Z,160121.34
2022-11-29T00:50:06.833Z,160125.25
2022-11-29T00:53:10.734Z,160135.75
2022-11-29T00:56:14.545Z,160137.06
2022-11-29T00:59:18.892Z,160124.00
2022-11-29T01:02:23.246Z,160147.50
2022-11-29T01:05:27.159Z,160170.97
2022-11-29T01:08:31.682Z,160180.13
2022-11-29T01:11:35.933Z,160169.69
2022-11-29T01:14:39.929Z,160144.91
2022-11-29T01:17:44.460Z,160135.75
2022-11-29T01:20:59.815Z,160122.66
2022-11-29T01:24:04.138Z,160129.19
2022-11-29T01:27:08.527Z,160144.91
2022-11-29T01:30:14.702Z,160139.66
2022-11-29T01:33:18.879Z,160120.06
2022-11-29T01:36:23.555Z,160117.47
2022-11-29T01:39:27.641Z,160125.25
2022-11-29T01:42:31.774Z,160131.81
2022-11-29T01:45:38.178Z,160146.19
2022-11-29T01:48:42.464Z,160131.81
2022-11-29T01:51:51.488Z,160100.47
2022-11-29T01:54:58.373Z,160124.00
2022-11-29T01:58:04.324Z,160148.81
2022-11-29T02:01:08.277Z,160151.41
2022-11-29T02:04:12.554Z,160138.34
2022-11-29T02:07:16.632Z,160143.56
2022-11-29T02:10:32.668Z,160112.22
2022-11-29T02:13:50.802Z,160139.66
2022-11-29T02:17:08.143Z,160129.19
2022-11-29T02:20:32.414Z,160157.88
2022-11-29T02:23:39.746Z,160140.97
2022-11-29T02:26:49.530Z,160122.66
2022-11-29T02:30:13.145Z,160143.56
2022-11-29T02:33:23.314Z,160126.59
2022-11-29T02:36:50.873Z,160117.47
2022-11-29T02:40:07.560Z,160137.06
2022-11-29T02:43:19.782Z,160167.03
2022-11-29T02:46:34.925Z,160121.34
2022-11-29T02:49:43.795Z,160134.41
2022-11-29T02:52:59.458Z,160122.66
2022-11-29T02:56:23.223Z,160121.34
2022-11-29T02:59:33.130Z,160105.72
2022-11-29T03:03:03.404Z,160133.09
2022-11-29T03:06:35.210Z,160125.25
2022-11-29T03:09:46.931Z,160157.88
2022-11-29T03:12:53.673Z,160191.88
2022-11-29T03:16:18.960Z,160121.34
2022-11-29T03:20:12.576Z,160103.13
2022-11-29T03:23:27.796Z,160118.78
2022-11-29T03:26:59.516Z,160122.66
2022-11-29T03:30:09.598Z,160144.91
2022-11-29T03:33:24.053Z,160118.78
2022-11-29T03:36:37.325Z,160087.41
2022-11-29T03:39:44.381Z,160117.47
2022-11-29T03:43:06.789Z,160103.13
2022-11-29T03:46:31.883Z,160122.66
2022-11-29T03:49:37.775Z,160109.63
2022-11-29T03:52:49.779Z,160137.06
2022-11-29T03:55:59.067Z,160133.09
2022-11-29T03:59:29.989Z,160135.75
2022-11-29T04:02:43.584Z,160152.75
2022-11-29T04:06:20.911Z,160138.34
2022-11-29T04:10:12.721Z,160137.06
2022-11-29T04:13:53.069Z,160144.91
2022-11-29T04:16:59.780Z,160127.91
2022-11-29T04:20:19.740Z,160124.00
2022-11-29T04:23:45.640Z,160127.91
2022-11-29T04:27:04.574Z,160165.78
2022-11-29T04:30:21.367Z,160129.19
2022-11-29T04:33:34.543Z,160113.56
2022-11-29T04:36:55.521Z,160118.78
2022-11-29T04:40:22.120Z,160151.41
2022-11-29T04:43:53.897Z,160176.19
2022-11-29T04:47:13.139Z,160110.97
2022-11-29T04:50:55.336Z,160150.09
2022-11-29T04:54:19.348Z,160118.78
2022-11-29T04:57:43.025Z,160148.81
2022-11-29T05:00:57.055Z,160117.47
2022-11-29T05:04:29.629Z,160151.41
2022-11-29T05:07:50.383Z,160139.66
2022-11-29T05:11:29.539Z,160151.41
2022-11-29T05:14:54.696Z,160144.91
2022-11-29T05:18:07.565Z,160113.56
2022-11-29T05:21:19.025Z,160147.50
2022-11-29T05:24:50.851Z,160181.44
2022-11-29T05:28:21.350Z,160178.78
2022-11-29T05:31:45.953Z,160185.38
2022-11-29T05:35:07.909Z,160161.84
2022-11-29T05:38:24.289Z,160146.19
2022-11-29T05:41:40.267Z,160138.34
2022-11-29T05:45:07.822Z,160142.25
2022-11-29T05:48:29.801Z,160137.06
2022-11-29T05:51:58.604Z,160143.56
2022-11-29T05:55:16.540Z,160139.66
2022-11-29T05:58:50.108Z,160150.09
2022-11-29T06:02:19.352Z,160154.00
2022-11-29T06:05:40.223Z,160155.34
2022-11-29T06:09:12.787Z,160142.25
2022-11-29T06:12:23.446Z,160114.88
2022-11-29T06:16:18.035Z,160150.09
2022-11-29T06:19:54.081Z,160148.81
2022-11-29T06:23:29.093Z,160173.59
2022-11-29T06:26:39.434Z,160189.28
2022-11-29T06:29:43.495Z,160172.28
2022-11-29T06:33:07.148Z,160167.03
2022-11-29T06:36:42.790Z,160157.88
2022-11-29T06:39:47.044Z,160186.69
2022-11-29T06:42:51.156Z,160147.50
2022-11-29T06:46:36.900Z,160164.44
2022-11-29T06:49:48.207Z,160173.59
2022-11-29T06:53:04.565Z,160177.53
2022-11-29T06:56:47.089Z,160168.38
2022-11-29T07:00:00.232Z,160170.97
2022-11-29T07:03:25.815Z,160184.03
2022-11-29T07:06:30.330Z,160199.66
2022-11-29T07:09:35.460Z,160210.16
2022-11-29T07:12:40.078Z,160227.16
2022-11-29T07:16:05.017Z,160199.66
2022-11-29T07:19:41.120Z,160207.50
2022-11-29T07:22:48.125Z,160182.72
2022-11-29T07:25:55.293Z,160194.47
2022-11-29T07:29:18.308Z,160190.59
2022-11-29T07:32:25.305Z,160199.66
2022-11-29T07:35:37.525Z,160241.44
2022-11-29T07:38:54.327Z,160234.94
2022-11-29T07:42:16.421Z,160241.44
2022-11-29T07:45:36.069Z,160246.69
2022-11-29T07:48:40.113Z,160228.38
2022-11-29T07:51:44.843Z,160220.59
2022-11-29T07:54:48.769Z,160234.94
2022-11-29T07:57:52.948Z,160250.59
2022-11-29T08:00:56.897Z,160245.38
2022-11-29T08:04:00.908Z,160241.44
2022-11-29T08:07:05.440Z,160244.09
2022-11-29T08:10:12.816Z,160261.09
2022-11-29T08:13:19.492Z,160267.56
2022-11-29T08:16:23.578Z,160284.56
2022-11-29T08:19:27.799Z,160280.66
2022-11-29T08:22:31.961Z,160288.47
2022-11-29T08:25:35.941Z,160348.50
2022-11-29T08:28:40.329Z,160310.69
2022-11-29T08:31:45.197Z,160301.53
2022-11-29T08:34:49.373Z,160319.78
2022-11-29T08:37:54.034Z,160305.44
2022-11-29T08:41:02.760Z,160306.72
2022-11-29T08:44:06.954Z,160313.28
2022-11-29T08:47:29.733Z,160345.91
2022-11-29T08:50:33.910Z,160378.56
2022-11-29T08:53:46.068Z,160406.00
2022-11-29T08:57:30.908Z,160392.97
2022-11-29T09:00:15.114Z,160430.81
2022-11-29T09:03:37.709Z,160419.03
2022-11-29T09:06:45.418Z,160422.97
2022-11-29T09:09:49.243Z,160466.03
2022-11-29T09:12:52.929Z,160489.53
2022-11-29T09:15:57.514Z,160473.88
2022-11-29T09:19:01.895Z,160501.28
2022-11-29T09:22:05.957Z,160502.63
2022-11-29T09:25:10.220Z,160509.19
2022-11-29T09:28:14.365Z,160505.28
2022-11-29T09:31:19.992Z,160502.63
2022-11-29T09:34:24.479Z,160502.63
2022-11-29T09:37:28.321Z,160503.94
2022-11-29T09:40:38.856Z,160486.97
2022-11-29T09:44:00.814Z,160498.69
2022-11-29T09:47:33.222Z,160505.28
2022-11-29T09:50:48.854Z,160509.19
2022-11-29T09:54:00.314Z,160527.44
2022-11-29T09:57:10.594Z,160534.00
2022-11-29T10:00:17.885Z,160550.97
2022-11-29T10:03:44.467Z,160566.66
2022-11-29T10:07:06.645Z,160575.81
2022-11-29T10:10:23.692Z,160586.22
2022-11-29T10:13:30.497Z,160562.72
2022-11-29T10:16:54.939Z,160594.06
2022-11-29T10:20:17.759Z,160616.28
2022-11-29T10:23:34.002Z,160591.47
2022-11-29T10:26:38.143Z,160580.97
2022-11-29T10:29:42.367Z,160617.56
2022-11-29T10:32:51.900Z,160625.47
2022-11-29T10:36:02.368Z,160648.94
2022-11-29T10:39:18.357Z,160658.13
2022-11-29T10:42:43.159Z,160690.78
2022-11-29T10:45:50.897Z,160672.44
2022-11-29T10:48:55.942Z,160663.31
2022-11-29T10:52:00.147Z,160684.22
2022-11-29T10:55:04.794Z,160680.28
2022-11-29T10:58:10.453Z,160703.84
2022-11-29T11:01:16.687Z,160690.78
2022-11-29T11:04:27.396Z,160669.84
2022-11-29T11:07:36.161Z,160748.22
2022-11-29T11:10:41.340Z,160733.84
2022-11-29T11:13:58.768Z,160732.59
2022-11-29T11:17:14.942Z,160746.91
2022-11-29T11:20:21.337Z,160745.69
2022-11-29T11:23:42.736Z,160750.84
2022-11-29T11:26:46.870Z,160765.25
2022-11-29T11:29:52.842Z,160782.22
2022-11-29T11:33:34.775Z,160745.69
2022-11-29T11:36:38.959Z,160749.56
2022-11-29T11:39:45.047Z,160732.59
2022-11-29T11:42:49.203Z,160776.97
2022-11-29T11:45:54.620Z,160771.78
2022-11-29T11:48:58.685Z,160760.00
2022-11-29T11:52:05.898Z,160766.53
2022-11-29T11:55:19.009Z,160796.59
2022-11-29T11:58:27.444Z,160830.56
2022-11-29T12:01:38.860Z,160807.06
2022-11-29T12:04:43.964Z,160790.09
2022-11-29T12:08:08.930Z,160804.41
2022-11-29T12:11:17.113Z,160803.13
2022-11-29T12:14:28.354Z,160770.50
2022-11-29T12:17:38.449Z,160794.00
2022-11-29T12:20:52.692Z,160805.72
2022-11-29T12:24:28.499Z,160800.47
2022-11-29T12:27:32.651Z,160758.69
2022-11-29T12:30:41.397Z,160763.94
2022-11-29T12:33:54.564Z,160750.84
2022-11-29T12:37:14.934Z,160760.00
2022-11-29T12:40:34.184Z,160791.34
2022-11-29T12:44:13.910Z,160763.94
2022-11-29T12:47:37.067Z,160753.47
2022-11-29T12:51:07.042Z,160756.09
2022-11-29T12:54:29.294Z,160737.78
2022-11-29T12:57:41.163Z,160735.19
2022-11-29T13:01:12.539Z,160729.94
2022-11-29T13:04:29.137Z,160733.84
2022-11-29T13:07:59.681Z,160729.94
2022-11-29T13:11:15.240Z,160745.69
2022-11-29T13:14:42.601Z,160750.84
2022-11-29T13:18:22.655Z,160745.69
2022-11-29T13:21:44.015Z,160753.47
2022-11-29T13:24:59.468Z,160760.00
2022-11-29T13:28:11.041Z,160784.84
2022-11-29T13:31:21.552Z,160754.75
2022-11-29T13:34:48.258Z,160737.78
2022-11-29T13:38:08.027Z,160702.50
2022-11-29T13:41:30.854Z,160739.09
2022-11-29T13:45:17.400Z,160729.94
2022-11-29T13:48:28.447Z,160714.28
2022-11-29T13:51:37.317Z,160724.72
2022-11-29T13:54:41.509Z,160716.88
2022-11-29T13:58:14.895Z,160726.00
2022-11-29T14:01:14.802Z,160701.19
2022-11-29T14:04:30.041Z,160701.19
2022-11-29T14:07:35.614Z,160703.84
2022-11-29T14:10:39.858Z,160709.03
2022-11-29T14:14:02.261Z,160698.59
2022-11-29T14:17:44.530Z,160707.75
2022-11-29T14:20:55.179Z,160698.59
2022-11-29T14:24:37.760Z,160701.19
2022-11-29T14:27:47.039Z,160690.78
2022-11-29T14:31:08.181Z,160723.41
2022-11-29T14:34:18.364Z,160711.69
2022-11-29T14:38:01.257Z,160702.50
2022-11-29T14:41:47.003Z,160681.63
2022-11-29T14:44:54.262Z,160672.44
2022-11-29T14:47:58.716Z,160682.94
2022-11-29T14:51:12.459Z,160682.94
2022-11-29T14:54:19.619Z,160690.78
2022-11-29T14:58:01.021Z,160667.19
2022-11-29T15:01:10.643Z,160682.94
2022-11-29T15:04:15.655Z,160675.09
2022-11-29T15:07:29.760Z,160689.47
2022-11-29T15:10:38.904Z,160693.34
2022-11-29T15:13:59.021Z,160688.13
2022-11-29T15:17:11.388Z,160671.13
2022-11-29T15:20:34.960Z,160672.44
2022-11-29T15:23:42.360Z,160663.31
2022-11-29T15:26:57.601Z,160667.19
2022-11-29T15:30:20.700Z,160677.69
2022-11-29T15:33:25.700Z,160667.19
2022-11-29T15:36:30.480Z,160672.44
2022-11-29T15:39:37.391Z,160659.41
2022-11-29T15:43:16.475Z,160669.84
2022-11-29T15:46:29.552Z,160671.13
2022-11-29T15:49:33.651Z,160672.44
2022-11-29T15:52:38.412Z,160664.59
2022-11-29T15:55:44.192Z,160671.13
2022-11-29T15:58:49.710Z,160672.44
2022-11-29T16:01:57.846Z,160680.28
2022-11-29T16:05:09.256Z,160672.44
2022-11-29T16:08:20.925Z,160675.09
2022-11-29T16:11:28.452Z,160685.53
2022-11-29T16:14:32.736Z,160656.78
2022-11-29T16:17:36.837Z,160665.91
2022-11-29T16:20:41.033Z,160667.19
2022-11-29T16:23:46.642Z,160662.03
2022-11-29T16:26:51.201Z,160665.91
2022-11-29T16:29:55.615Z,160663.31
2022-11-29T16:33:01.527Z,160680.28
2022-11-29T16:36:11.366Z,160679.00
2022-11-29T16:39:25.276Z,160665.91
2022-11-29T16:42:32.258Z,160659.41
2022-11-29T16:45:38.382Z,160669.84
2022-11-29T16:48:42.706Z,160656.78
2022-11-29T16:51:48.480Z,160658.13
2022-11-29T16:54:52.462Z,160646.28
2022-11-29T16:57:56.659Z,160629.38
2022-11-29T17:01:15.975Z,160633.31
2022-11-29T17:04:23.677Z,160643.69
2022-11-29T17:07:33.618Z,160637.19
2022-11-29T17:10:37.952Z,160638.44
2022-11-29T17:13:42.267Z,160652.88
2022-11-29T17:16:49.272Z,160643.69
2022-11-29T17:19:53.286Z,160639.78
2022-11-29T17:22:57.277Z,160629.38
2022-11-29T17:26:02.486Z,160645.03
2022-11-29T17:29:07.040Z,160635.84
2022-11-29T17:32:10.931Z,160638.44
2022-11-29T17:35:15.460Z,160614.97
2022-11-29T17:38:19.342Z,160604.56
2022-11-29T17:41:25.931Z,160603.25
2022-11-29T17:44:29.971Z,160604.56
2022-11-29T17:47:33.851Z,160603.25
2022-11-29T17:50:38.860Z,160598.00
2022-11-29T17:53:43.160Z,160595.41
2022-11-29T17:56:47.026Z,160601.91
2022-11-29T17:59:51.014Z,160588.81
2022-11-29T18:02:55.400Z,160599.31
2022-11-29T18:06:01.117Z,160601.91
2022-11-29T18:09:07.115Z,160590.16
2022-11-29T18:12:11.521Z,160607.16
2022-11-29T18:15:15.482Z,160614.97
2022-11-29T18:18:19.682Z,160603.25
2022-11-29T18:21:24.205Z,160596.66
2022-11-29T18:24:28.448Z,160583.63
2022-11-29T18:27:32.408Z,160612.34
2022-11-29T18:30:36.441Z,160586.22
2022-11-29T18:33:42.081Z,160557.47
2022-11-29T18:36:48.440Z,160578.44
2022-11-29T18:39:52.833Z,160554.88
2022-11-29T18:42:57.065Z,160583.63
2022-11-29T18:46:14.077Z,160575.81
2022-11-29T18:49:18.635Z,160591.47
2022-11-29T18:52:22.684Z,160592.75
2022-11-29T18:55:26.998Z,160565.34
2022-11-29T18:58:31.389Z,160552.25
2022-11-29T19:01:40.408Z,160554.88
2022-11-29T19:04:45.151Z,160583.63
2022-11-29T19:07:49.220Z,160617.56
2022-11-29T19:10:53.396Z,160600.63
2022-11-29T19:14:03.828Z,160608.44
2022-11-29T19:17:08.076Z,160578.44
2022-11-29T19:20:12.473Z,160605.84
2022-11-29T19:23:16.295Z,160584.91
2022-11-29T19:26:21.884Z,160583.63
2022-11-29T19:29:26.041Z,160579.69
2022-11-29T19:32:30.323Z,160600.63
2022-11-29T19:35:34.593Z,160601.91
2022-11-29T19:38:39.610Z,160567.94
2022-11-29T19:41:46.224Z,160554.88
2022-11-29T19:48:15.529Z,160571.84
2022-11-29T19:51:20.428Z,160598.00
2022-11-29T19:54:24.328Z,160596.66
2022-11-29T19:57:28.551Z,160596.66
2022-11-29T20:00:32.788Z,160603.25
2022-11-29T20:03:37.822Z,160604.56
2022-11-29T20:06:44.225Z,160616.28
2022-11-29T20:09:48.634Z,160578.44
2022-11-29T20:12:54.073Z,160579.69
2022-11-29T20:16:05.266Z,160573.19
2022-11-29T20:19:12.299Z,160595.41
2022-11-29T20:22:16.535Z,160567.94
2022-11-29T20:25:20.796Z,160564.00
2022-11-29T20:28:24.936Z,160584.91
2022-11-29T20:31:29.547Z,160596.66
2022-11-29T20:34:33.384Z,160565.34
2022-11-29T20:37:47.540Z,160550.97
2022-11-29T20:41:03.369Z,160557.47
2022-11-29T20:44:12.446Z,160547.03
2022-11-29T20:47:19.373Z,160580.97
2022-11-29T20:50:26.467Z,160571.84
2022-11-29T20:53:46.110Z,160560.09
2022-11-29T20:56:50.295Z,160553.56
2022-11-29T20:59:54.490Z,160543.13
2022-11-29T21:02:58.653Z,160532.69
2022-11-29T21:06:05.016Z,160548.38
2022-11-29T21:09:09.494Z,160544.44
2022-11-29T21:12:14.397Z,160530.09
2022-11-29T21:15:19.108Z,160544.44
2022-11-29T21:18:25.956Z,160549.63
2022-11-29T21:21:39.476Z,160574.50
2022-11-29T21:24:49.694Z,160578.44
2022-11-29T21:27:55.088Z,160566.66
2022-11-29T21:30:59.576Z,160594.06
2022-11-29T21:34:04.076Z,160586.22
2022-11-29T21:37:08.897Z,160600.63
2022-11-29T21:40:14.396Z,160566.66
2022-11-29T21:43:18.437Z,160575.81
2022-11-29T21:46:22.759Z,160594.06
2022-11-29T21:49:26.823Z,160564.00
2022-11-29T21:52:30.963Z,160520.91
2022-11-29T21:55:34.903Z,160575.81
2022-11-29T21:58:40.242Z,160574.50
2022-11-29T22:01:44.648Z,160543.13
2022-11-29T22:04:49.012Z,160553.56
2022-11-29T22:07:56.632Z,160520.91
2022-11-29T22:11:16.880Z,160554.88
2022-11-29T22:14:20.930Z,160554.88
2022-11-29T22:17:25.281Z,160532.69
2022-11-29T22:20:29.532Z,160531.34
2022-11-29T22:23:34.236Z,160536.59
2022-11-29T22:26:38.704Z,160549.63
2022-11-29T22:29:42.522Z,160583.63
2022-11-29T22:32:46.668Z,160549.63
2022-11-29T22:35:50.760Z,160554.88
2022-11-29T22:38:54.861Z,160517.03
2022-11-29T22:41:58.713Z,160548.38
2022-11-29T22:45:04.032Z,160527.44
2022-11-29T22:48:07.952Z,160507.88
2022-11-29T22:51:13.426Z,160517.03
2022-11-29T22:54:18.079Z,160475.22
2022-11-29T22:57:22.134Z,160540.53
2022-11-29T23:00:26.272Z,160520.91
2022-11-29T23:03:33.062Z,160519.63
2022-11-29T23:06:40.065Z,160518.31
2022-11-29T23:09:44.054Z,160484.38
2022-11-29T23:12:48.148Z,160506.53
2022-11-29T23:15:52.819Z,160532.69
2022-11-29T23:18:58.302Z,160523.50
2022-11-29T23:22:02.635Z,160522.19
2022-11-29T23:25:07.174Z,160502.63
2022-11-29T23:28:11.181Z,160497.38
2022-11-29T23:31:15.913Z,160515.72
2022-11-29T23:34:20.197Z,160526.16
2022-11-29T23:37:24.336Z,160500.03
2022-11-29T23:40:28.598Z,160485.66
2022-11-29T23:43:35.209Z,160475.22
2022-11-29T23:46:39.199Z,160490.84
2022-11-29T23:49:42.941Z,160479.13
2022-11-29T23:52:52.734Z,160476.50
2022-11-29T23:55:58.852Z,160486.97
2022-11-29T23:59:03.539Z,160447.75
